This is the latest recevied weather packets stored in our database for station/object YG1CIC-13. If no packets are shown the sender has not sent any weather packets the latest 10 day(s).
| Time | Temp. | Humidity | Pressure | Rain* | Wind** | Luminosity | Snow |
|---|---|---|---|---|---|---|---|
| 1777890179 | 26.11° C | 99% | - | 0 mm | - | - | - |
| 1777889578 | 25.56° C | 100% | - | 0 mm | - | - | - |
| 1777888977 | 26.11° C | 100% | - | 0 mm | - | - | - |
| 1777888376 | 26.67° C | 96% | - | 0 mm | - | - | - |
| 1777887775 | 27.78° C | 96% | - | 0 mm | - | - | - |
| 1777887174 | 29.44° C | 88% | - | 0 mm | - | - | - |
| 1777886574 | 30° C | 88% | - | 0 mm | - | - | - |
| 1777885973 | 30° C | 89% | - | 0 mm | - | - | - |
| 1777885372 | 30° C | 89% | - | 0 mm | - | - | - |
| 1777884771 | 30.56° C | 86% | - | 0 mm | - | - | - |
| 1777884171 | 31.67° C | 82% | - | 0 mm | - | - | - |
| 1777883569 | 31.67° C | 81% | - | 0 mm | - | - | - |
| 1777882969 | 32.22° C | 79% | - | 0 mm | - | - | - |
| 1777882368 | 31.67° C | 79% | - | 0 mm | - | - | - |
| 1777881767 | 32.22° C | 80% | - | 0 mm | - | - | - |
| 1777881166 | 32.22° C | 79% | - | 0 mm | - | - | - |
| 1777880565 | 32.78° C | 78% | - | 0 mm | - | - | - |
| 1777879965 | 32.22° C | 78% | - | 0 mm | - | - | - |
| 1777879364 | 32.22° C | 80% | - | 0 mm | - | - | - |
| 1777878763 | 32.22° C | 80% | - | 0 mm | - | - | - |
| 1777878162 | 32.78° C | 80% | - | 0 mm | - | - | - |
| 1777876962 | 32.22° C | 78% | - | 0 mm | - | - | - |
| 1777876361 | 32.22° C | 77% | - | 0 mm | - | - | - |
| 1777875761 | 31.11° C | 78% | - | 0 mm | - | - | - |
| 1777875160 | 31.11° C | 80% | - | 0 mm | - | - | - |
* Rain latest hour (hover to see other rain measurements)
** Current wind speed in m/s (hover to see current wind gust speed)